createdAt,value
2023-08-25T00:02:19.885Z,98230.03
2023-08-25T00:07:27.781Z,98219.13
2023-08-25T00:12:32.865Z,98211.34
2023-08-25T00:17:41.209Z,98194.69
2023-08-25T00:22:46.400Z,98204.66
2023-08-25T00:27:51.830Z,98216.63
2023-08-25T00:33:06.197Z,98241.63
2023-08-25T00:38:11.397Z,98223.38
2023-08-25T00:43:16.505Z,98212.50
2023-08-25T00:48:24.421Z,98200.88
2023-08-25T00:53:31.396Z,98202.78
2023-08-25T00:58:36.536Z,98211.41
2023-08-25T01:03:44.652Z,98202.53
2023-08-25T01:08:50.249Z,98202.19
2023-08-25T01:14:14.759Z,98196.75
2023-08-25T01:19:56.885Z,98206.09
2023-08-25T01:25:21.990Z,98215.44
2023-08-25T01:30:31.690Z,98219.38
2023-08-25T01:35:51.760Z,98225.28
2023-08-25T01:41:03.728Z,98228.56
2023-08-25T01:46:14.159Z,98221.06
2023-08-25T01:51:20.396Z,98225.72
2023-08-25T01:56:26.418Z,98219.84
2023-08-25T02:01:34.274Z,98221.78
2023-08-25T02:06:39.520Z,98222.09
2023-08-25T02:11:46.970Z,98216.59
2023-08-25T02:17:00.676Z,98207.63
2023-08-25T02:22:05.866Z,98203.31
2023-08-25T02:27:10.881Z,98205.56
2023-08-25T02:32:18.817Z,98198.56
2023-08-25T02:37:24.071Z,98202.78
2023-08-25T02:42:29.163Z,98195.06
2023-08-25T02:47:37.419Z,98189.63
2023-08-25T02:52:42.438Z,98179.53
2023-08-25T02:57:47.767Z,98191.19
2023-08-25T03:02:56.051Z,98169.03
2023-08-25T03:08:02.653Z,98165.53
2023-08-25T03:13:09.084Z,98160.19
2023-08-25T03:18:18.279Z,98161.69
2023-08-25T03:23:24.917Z,98160.19
2023-08-25T03:28:30.128Z,98163.69
2023-08-25T03:33:38.914Z,98164.16
2023-08-25T03:38:44.014Z,98153.28
2023-08-25T03:43:52.088Z,98143.25
2023-08-25T03:49:00.749Z,98149.50
2023-08-25T03:54:08.568Z,98146.03
2023-08-25T03:59:13.752Z,98148.38
2023-08-25T04:04:21.521Z,98149.63
2023-08-25T04:09:26.859Z,98160.44
2023-08-25T04:14:36.400Z,98155.84
2023-08-25T04:19:47.941Z,98162.03
2023-08-25T04:24:53.089Z,98155.06
2023-08-25T04:29:58.155Z,98153.97
2023-08-25T04:35:06.200Z,98156.06
2023-08-25T04:40:15.240Z,98149.78
2023-08-25T04:45:20.489Z,98145.75
2023-08-25T04:50:28.279Z,98141.31
2023-08-25T04:55:33.591Z,98135.88
2023-08-25T05:00:38.771Z,98129.84
2023-08-25T05:05:48.902Z,98136.28
2023-08-25T05:10:56.065Z,98129.22
2023-08-25T05:16:03.503Z,98126.97
2023-08-25T05:21:28.190Z,98115.00
2023-08-25T05:26:33.831Z,98112.88
2023-08-25T05:31:39.722Z,98119.59
2023-08-25T05:37:07.582Z,98119.19
2023-08-25T05:42:15.282Z,98114.66
2023-08-25T05:47:21.840Z,98110.38
2023-08-25T05:52:29.732Z,98111.44
2023-08-25T05:57:37.293Z,98102.59
2023-08-25T06:02:42.631Z,98104.91
2023-08-25T06:07:54.875Z,98108.41
2023-08-25T06:13:00.499Z,98093.66
2023-08-25T06:18:06.180Z,98102.78
2023-08-25T06:23:16.035Z,98106.69
2023-08-25T06:28:23.359Z,98112.53
2023-08-25T06:33:31.291Z,98105.44
2023-08-25T06:38:50.681Z,98106.38
2023-08-25T06:44:01.123Z,98112.88
2023-08-25T06:49:07.422Z,98123.09
2023-08-25T06:54:15.039Z,98129.69
2023-08-25T06:59:20.379Z,98119.03
2023-08-25T07:04:25.476Z,98131.66
2023-08-25T07:09:33.379Z,98145.16
2023-08-25T07:14:38.563Z,98137.50
2023-08-25T07:19:46.413Z,98148.94
2023-08-25T07:24:55.375Z,98148.97
2023-08-25T07:30:02.838Z,98149.44
2023-08-25T07:35:09.199Z,98149.91
2023-08-25T07:40:17.300Z,98168.84
2023-08-25T07:45:23.052Z,98160.22
2023-08-25T07:50:29.044Z,98149.50
2023-08-25T07:55:41.007Z,98166.09
2023-08-25T08:00:47.074Z,98161.56
2023-08-25T08:05:52.184Z,98164.53
2023-08-25T08:10:59.923Z,98176.78
2023-08-25T08:16:06.911Z,98181.28
2023-08-25T08:21:12.742Z,98174.59
2023-08-25T08:26:20.603Z,98174.44
2023-08-25T08:31:25.932Z,98185.78
2023-08-25T08:36:31.168Z,98179.84
2023-08-25T08:41:39.472Z,98186.81
2023-08-25T08:46:46.428Z,98179.75
2023-08-25T08:51:52.826Z,98166.63
2023-08-25T08:57:04.057Z,98166.53
2023-08-25T09:02:09.310Z,98172.03
2023-08-25T09:07:17.317Z,98183.38
2023-08-25T09:12:25.340Z,98181.09
2023-08-25T09:17:34.459Z,98180.16
2023-08-25T09:22:39.711Z,98179.59
2023-08-25T09:27:48.006Z,98180.47
2023-08-25T09:33:04.110Z,98178.53
2023-08-25T09:38:10.844Z,98178.78
2023-08-25T09:43:19.754Z,98176.09
2023-08-25T09:48:25.291Z,98186.91
2023-08-25T09:53:35.595Z,98198.50
2023-08-25T09:58:46.319Z,98202.53
2023-08-25T10:03:51.370Z,98207.19
2023-08-25T10:08:58.660Z,98214.75
2023-08-25T10:14:09.599Z,98203.41
2023-08-25T10:19:19.906Z,98209.19
2023-08-25T10:24:26.551Z,98213.72
2023-08-25T10:29:35.794Z,98202.47
2023-08-25T10:34:43.959Z,98220.00
2023-08-25T10:39:50.849Z,98224.41
2023-08-25T10:45:07.746Z,98213.53
2023-08-25T10:50:13.922Z,98206.97
2023-08-25T10:55:31.015Z,98199.16
2023-08-25T11:00:44.951Z,98213.09
2023-08-25T11:05:50.251Z,98204.69
2023-08-25T11:11:18.908Z,98217.00
2023-08-25T11:16:27.096Z,98194.59
2023-08-25T11:21:33.151Z,98211.06
2023-08-25T11:26:40.796Z,98231.28
2023-08-25T11:31:50.285Z,98228.28
2023-08-25T11:36:55.401Z,98223.25
2023-08-25T11:42:00.756Z,98228.75
2023-08-25T11:47:10.379Z,98251.63
2023-08-25T11:52:16.096Z,98254.22
2023-08-25T11:57:21.296Z,98254.31
2023-08-25T12:02:29.697Z,98256.84
2023-08-25T12:07:41.602Z,98274.22
2023-08-25T12:12:47.183Z,98256.44
2023-08-25T12:17:56.192Z,98242.63
2023-08-25T12:23:03.609Z,98242.41
2023-08-25T12:28:10.322Z,98224.53
2023-08-25T12:33:18.424Z,98175.97
2023-08-25T12:38:23.842Z,98180.13
2023-08-25T12:43:29.568Z,98187.25
2023-08-25T12:48:40.262Z,98217.28
2023-08-25T12:53:45.675Z,98227.44
2023-08-25T12:58:55.999Z,98237.13
2023-08-25T13:04:05.975Z,98239.09
2023-08-25T13:09:11.346Z,98229.69
2023-08-25T13:14:20.589Z,98219.16
2023-08-25T13:19:28.653Z,98211.44
2023-08-25T13:24:34.698Z,98222.34
2023-08-25T13:29:40.004Z,98236.47
2023-08-25T13:34:48.821Z,98211.16
2023-08-25T13:39:56.199Z,98206.66
2023-08-25T13:45:01.444Z,98209.16
2023-08-25T13:50:11.700Z,98206.41
2023-08-25T13:55:16.728Z,98209.50
2023-08-25T14:00:26.706Z,98213.53
2023-08-25T14:05:41.146Z,98210.69
2023-08-25T14:10:47.774Z,98219.38
2023-08-25T14:15:57.107Z,98220.06
2023-08-25T14:21:04.892Z,98224.03
2023-08-25T14:26:13.907Z,98204.44
2023-08-25T14:31:18.990Z,98198.00
2023-08-25T14:36:27.867Z,98184.50
2023-08-25T14:41:35.064Z,98184.00
2023-08-25T14:46:42.777Z,98175.13
2023-08-25T14:51:50.519Z,98171.81
2023-08-25T14:56:57.026Z,98196.78
2023-08-25T15:02:04.439Z,98197.63
2023-08-25T15:07:13.118Z,98211.47
2023-08-25T15:12:18.167Z,98206.75
2023-08-25T15:17:23.274Z,98202.78
2023-08-25T15:22:31.029Z,98205.00
2023-08-25T15:27:36.084Z,98207.13
2023-08-25T15:32:41.391Z,98196.59
2023-08-25T15:37:49.223Z,98199.34
2023-08-25T15:42:54.579Z,98188.03
2023-08-25T15:47:59.784Z,98184.81
2023-08-25T15:53:08.205Z,98172.63
2023-08-25T15:58:13.507Z,98175.31
2023-08-25T16:03:20.169Z,98137.22
2023-08-25T16:08:29.913Z,98132.34
2023-08-25T16:13:36.210Z,98125.44
2023-08-25T16:18:43.178Z,98112.34
2023-08-25T16:23:51.113Z,98103.03
2023-08-25T16:28:59.513Z,98119.88
2023-08-25T16:34:04.644Z,98130.38
2023-08-25T16:39:12.985Z,98132.78
2023-08-25T16:44:19.400Z,98128.38
2023-08-25T16:49:24.571Z,98119.41
2023-08-25T16:54:32.346Z,98127.00
2023-08-25T16:59:37.575Z,98120.00
2023-08-25T17:04:42.779Z,98137.00
2023-08-25T17:09:50.412Z,98143.13
2023-08-25T17:14:55.752Z,98155.34
2023-08-25T17:20:04.640Z,98162.06
2023-08-25T17:25:15.256Z,98147.75
2023-08-25T17:30:20.574Z,98147.47
2023-08-25T17:35:25.726Z,98157.81
2023-08-25T17:40:34.758Z,98158.59
2023-08-25T17:45:40.145Z,98145.38
2023-08-25T17:50:45.267Z,98148.84
2023-08-25T17:55:57.632Z,98151.41
2023-08-25T18:01:05.802Z,98160.72
2023-08-25T18:06:11.597Z,98162.44
2023-08-25T18:11:19.336Z,98169.25
2023-08-25T18:16:24.556Z,98189.94
2023-08-25T18:21:33.611Z,98190.03
2023-08-25T18:26:44.739Z,98197.31
2023-08-25T18:31:51.142Z,98200.16
2023-08-25T18:36:56.613Z,98211.88
2023-08-25T18:42:05.097Z,98224.41
2023-08-25T18:47:11.890Z,98228.69
2023-08-25T18:52:17.058Z,98235.22
2023-08-25T18:57:26.779Z,98257.66
2023-08-25T19:02:33.299Z,98248.97
2023-08-25T19:07:40.512Z,98265.94
2023-08-25T19:12:49.210Z,98277.25
2023-08-25T19:17:55.700Z,98288.50
2023-08-25T19:23:01.089Z,98309.63
2023-08-25T19:28:09.313Z,98312.69
2023-08-25T19:33:14.475Z,98316.31
2023-08-25T19:38:19.573Z,98320.00
2023-08-25T19:43:27.400Z,98327.28
2023-08-25T19:48:34.180Z,98343.72
2023-08-25T19:53:42.159Z,98332.81
2023-08-25T19:58:54.236Z,98337.38
2023-08-25T20:03:59.767Z,98320.41
2023-08-25T20:09:04.949Z,98309.28
2023-08-25T20:14:15.012Z,98305.78
2023-08-25T20:19:20.508Z,98320.09
2023-08-25T20:24:25.616Z,98314.31
2023-08-25T20:29:33.435Z,98313.53
2023-08-25T20:34:40.540Z,98298.81
2023-08-25T20:39:45.652Z,98287.84
2023-08-25T20:44:53.484Z,98284.72
2023-08-25T20:49:59.055Z,98276.78
2023-08-25T20:55:04.398Z,98256.13
2023-08-25T21:00:13.644Z,98265.13
2023-08-25T21:05:19.579Z,98246.78
2023-08-25T21:10:24.761Z,98230.69
2023-08-25T21:15:33.174Z,98231.84
2023-08-25T21:20:38.439Z,98205.91
2023-08-25T21:25:43.649Z,98207.16
2023-08-25T21:30:57.459Z,98202.63
2023-08-25T21:36:02.621Z,98182.97
2023-08-25T21:41:07.774Z,98179.38
2023-08-25T21:46:16.281Z,98182.03
2023-08-25T21:51:24.180Z,98171.13
2023-08-25T21:56:29.646Z,98174.22
2023-08-25T22:01:37.706Z,98179.84
2023-08-25T22:06:42.847Z,98168.97
2023-08-25T22:11:48.207Z,98181.44
2023-08-25T22:16:56.735Z,98169.44
2023-08-25T22:22:01.901Z,98162.84
2023-08-25T22:27:07.566Z,98153.81
2023-08-25T22:34:14.679Z,98151.34
2023-08-25T22:37:40.263Z,98158.38
2023-08-25T22:42:45.310Z,98154.44
2023-08-25T22:47:53.338Z,98159.66
2023-08-25T22:52:59.034Z,98163.50
2023-08-25T22:58:04.090Z,98185.50
2023-08-25T23:03:11.871Z,98198.84
2023-08-25T23:08:16.948Z,98187.41
2023-08-25T23:13:22.078Z,98206.91
2023-08-25T23:18:29.972Z,98202.22
2023-08-25T23:23:34.988Z,98184.31
2023-08-25T23:28:41.940Z,98178.84
2023-08-25T23:33:49.696Z,98186.78
2023-08-25T23:38:54.892Z,98185.91
2023-08-25T23:43:59.975Z,98198.59
2023-08-25T23:49:08.503Z,98194.25
2023-08-25T23:54:13.847Z,98191.34
2023-08-25T23:59:18.938Z,98180.44
